메인 페이지
METAR-TAF:

METAR-TAF

공항 :

두샨베, 타지키스탄

위도: 38-33N, 경도: 068-47E, 고도: 803m

현재 날씨관측

예보는 36분 전, 10:00시(UTC)에 발표되었습니다.
여러 방향의 바람 4kt
온도 18°C
습도 26%
기압 1025 hPa
시정 10km 이상

METAR: UTDD 161000Z VRB02MPS 9999 NSC 18/M02 Q1025 R09/D NOSIG RMK QFE700/0933

시각: 15:36 (10:36 UTC)

예보

예보는 1 시간 36분 전, 09:00시(UTC)에 발표되었습니다.
예보 대상 시간: 16일 10시부터 16일 22시까지 (UTC)
여러 방향의 바람 4kt
시정: 6000m
고도 6600ft 상공 구름 조금
고도 15000ft 상공 구름 보통
일시적
16일 14시부터 16일 22시까지 (UTC)
시정: 3100m
연기

TAF: UTDD 160900Z 1610/1622 VRB02MPS 6000 FEW066 SCT150 TEMPO 1614/1622 3100 FU

4,000개 이상의 공항 관측 자료 및 예보 (METAR 및 TAF 보고).

지도상에서 검색 가능한 기상관측소가 노란 점과 빨간 점으로 표시되어 있습니다.

기상관측소 명을 보려면 표시 위로 마우스를 이동하세요.

날씨 관측과 예보를 보려면 클릭하세요.

지도 변경 : 확대하려면 엑스 표시가 있는 녹색 버튼, 축소하려면 빼기 표시가 있는 녹색 버튼, 다음 페이지의 지도를 보려면 녹색 화살표를 클릭하세요.


METAR-TAF: